sensor_id;sensor_type;location;lat;lon;timestamp;temperature;humidity
19050;DHT22;9657;45.940;12.840;2022-07-30T00:02:00;33.70;42.30
19050;DHT22;9657;45.940;12.840;2022-07-30T00:04:27;33.70;42.30
19050;DHT22;9657;45.940;12.840;2022-07-30T00:06:54;33.70;42.30
19050;DHT22;9657;45.940;12.840;2022-07-30T00:09:21;33.70;42.30
19050;DHT22;9657;45.940;12.840;2022-07-30T00:11:48;33.70;42.30
19050;DHT22;9657;45.940;12.840;2022-07-30T00:14:16;33.70;42.30
19050;DHT22;9657;45.940;12.840;2022-07-30T00:16:44;33.70;42.30
19050;DHT22;9657;45.940;12.840;2022-07-30T00:19:11;33.70;42.30
19050;DHT22;9657;45.940;12.840;2022-07-30T00:21:38;33.70;42.40
19050;DHT22;9657;45.940;12.840;2022-07-30T00:24:06;33.70;42.40
19050;DHT22;9657;45.940;12.840;2022-07-30T00:26:33;33.70;42.40
19050;DHT22;9657;45.940;12.840;2022-07-30T00:29:00;33.70;42.40
19050;DHT22;9657;45.940;12.840;2022-07-30T00:31:27;33.70;42.40
19050;DHT22;9657;45.940;12.840;2022-07-30T00:33:56;33.70;42.50
19050;DHT22;9657;45.940;12.840;2022-07-30T00:36:23;33.70;42.40
19050;DHT22;9657;45.940;12.840;2022-07-30T00:38:50;33.70;42.50
19050;DHT22;9657;45.940;12.840;2022-07-30T00:41:17;33.70;42.40
19050;DHT22;9657;45.940;12.840;2022-07-30T00:43:44;33.70;42.50
19050;DHT22;9657;45.940;12.840;2022-07-30T00:46:12;33.70;42.50
19050;DHT22;9657;45.940;12.840;2022-07-30T00:48:39;33.60;42.40
19050;DHT22;9657;45.940;12.840;2022-07-30T00:51:07;33.60;42.40
19050;DHT22;9657;45.940;12.840;2022-07-30T00:53:35;33.60;42.40
19050;DHT22;9657;45.940;12.840;2022-07-30T00:56:03;33.60;42.40
19050;DHT22;9657;45.940;12.840;2022-07-30T00:58:30;33.60;42.40
19050;DHT22;9657;45.940;12.840;2022-07-30T01:03:32;33.60;42.40
19050;DHT22;9657;45.940;12.840;2022-07-30T01:05:59;33.60;42.50
19050;DHT22;9657;45.940;12.840;2022-07-30T01:08:28;33.60;42.50
19050;DHT22;9657;45.940;12.840;2022-07-30T01:10:55;33.60;42.50
19050;DHT22;9657;45.940;12.840;2022-07-30T01:13:22;33.60;42.50
19050;DHT22;9657;45.940;12.840;2022-07-30T01:15:49;33.60;42.50
19050;DHT22;9657;45.940;12.840;2022-07-30T01:18:16;33.60;42.50
19050;DHT22;9657;45.940;12.840;2022-07-30T01:20:49;33.60;42.50
19050;DHT22;9657;45.940;12.840;2022-07-30T01:23:20;33.60;42.50
19050;DHT22;9657;45.940;12.840;2022-07-30T01:25:54;33.60;42.60
19050;DHT22;9657;45.940;12.840;2022-07-30T01:28:25;33.60;42.60
19050;DHT22;9657;45.940;12.840;2022-07-30T01:30:55;33.60;42.60
19050;DHT22;9657;45.940;12.840;2022-07-30T01:33:24;33.60;42.60
19050;DHT22;9657;45.940;12.840;2022-07-30T01:35:53;33.60;42.60
19050;DHT22;9657;45.940;12.840;2022-07-30T01:38:25;33.60;42.60
19050;DHT22;9657;45.940;12.840;2022-07-30T01:40:55;33.60;42.60
19050;DHT22;9657;45.940;12.840;2022-07-30T01:43:23;33.60;42.70
19050;DHT22;9657;45.940;12.840;2022-07-30T01:45:52;33.60;42.70
19050;DHT22;9657;45.940;12.840;2022-07-30T01:48:21;33.60;42.70
19050;DHT22;9657;45.940;12.840;2022-07-30T01:50:51;33.60;42.70
19050;DHT22;9657;45.940;12.840;2022-07-30T01:53:22;33.60;42.70
19050;DHT22;9657;45.940;12.840;2022-07-30T01:55:51;33.60;42.70
19050;DHT22;9657;45.940;12.840;2022-07-30T01:58:23;33.60;42.70
19050;DHT22;9657;45.940;12.840;2022-07-30T02:00:51;33.60;42.80
19050;DHT22;9657;45.940;12.840;2022-07-30T02:03:20;33.60;42.80
19050;DHT22;9657;45.940;12.840;2022-07-30T02:05:51;33.60;42.80
19050;DHT22;9657;45.940;12.840;2022-07-30T02:08:26;33.60;42.80
19050;DHT22;9657;45.940;12.840;2022-07-30T02:11:00;33.60;42.80
19050;DHT22;9657;45.940;12.840;2022-07-30T02:13:30;33.60;42.80
19050;DHT22;9657;45.940;12.840;2022-07-30T02:16:01;33.60;42.80
19050;DHT22;9657;45.940;12.840;2022-07-30T02:18:35;33.50;42.80
19050;DHT22;9657;45.940;12.840;2022-07-30T02:21:06;33.60;42.80
19050;DHT22;9657;45.940;12.840;2022-07-30T02:23:35;33.50;42.80
19050;DHT22;9657;45.940;12.840;2022-07-30T02:26:04;33.50;42.80
19050;DHT22;9657;45.940;12.840;2022-07-30T02:28:38;33.50;42.80
19050;DHT22;9657;45.940;12.840;2022-07-30T02:31:07;33.50;42.90
19050;DHT22;9657;45.940;12.840;2022-07-30T02:33:37;33.50;42.90
19050;DHT22;9657;45.940;12.840;2022-07-30T02:36:08;33.50;42.90
19050;DHT22;9657;45.940;12.840;2022-07-30T02:38:37;33.50;42.90
19050;DHT22;9657;45.940;12.840;2022-07-30T02:41:07;33.50;43.00
19050;DHT22;9657;45.940;12.840;2022-07-30T02:43:39;33.50;43.00
19050;DHT22;9657;45.940;12.840;2022-07-30T02:46:07;33.50;43.00
19050;DHT22;9657;45.940;12.840;2022-07-30T02:48:37;33.50;43.00
19050;DHT22;9657;45.940;12.840;2022-07-30T02:51:06;33.50;43.00
19050;DHT22;9657;45.940;12.840;2022-07-30T02:53:34;33.50;43.00
19050;DHT22;9657;45.940;12.840;2022-07-30T02:56:04;33.50;43.00
19050;DHT22;9657;45.940;12.840;2022-07-30T02:58:36;33.50;43.10
19050;DHT22;9657;45.940;12.840;2022-07-30T03:01:04;33.50;43.00
19050;DHT22;9657;45.940;12.840;2022-07-30T03:03:32;33.50;43.10
19050;DHT22;9657;45.940;12.840;2022-07-30T03:06:00;33.40;43.00
19050;DHT22;9657;45.940;12.840;2022-07-30T03:08:28;33.40;43.00
19050;DHT22;9657;45.940;12.840;2022-07-30T03:10:57;33.50;43.10
19050;DHT22;9657;45.940;12.840;2022-07-30T03:13:25;33.50;43.10
19050;DHT22;9657;45.940;12.840;2022-07-30T03:15:56;33.40;43.00
19050;DHT22;9657;45.940;12.840;2022-07-30T03:18:27;33.50;43.10
19050;DHT22;9657;45.940;12.840;2022-07-30T03:20:57;33.50;43.10
19050;DHT22;9657;45.940;12.840;2022-07-30T03:23:26;33.40;43.10
19050;DHT22;9657;45.940;12.840;2022-07-30T03:25:56;33.40;43.10
19050;DHT22;9657;45.940;12.840;2022-07-30T03:28:27;33.40;43.10
19050;DHT22;9657;45.940;12.840;2022-07-30T03:30:59;33.40;43.10
19050;DHT22;9657;45.940;12.840;2022-07-30T03:33:26;33.40;43.10
19050;DHT22;9657;45.940;12.840;2022-07-30T03:35:54;33.40;43.20
19050;DHT22;9657;45.940;12.840;2022-07-30T03:38:22;33.50;43.20
19050;DHT22;9657;45.940;12.840;2022-07-30T03:40:50;33.40;43.20
19050;DHT22;9657;45.940;12.840;2022-07-30T03:43:17;33.40;43.20
19050;DHT22;9657;45.940;12.840;2022-07-30T03:45:46;33.40;43.20
19050;DHT22;9657;45.940;12.840;2022-07-30T03:48:15;33.40;43.20
19050;DHT22;9657;45.940;12.840;2022-07-30T03:50:43;33.40;43.20
19050;DHT22;9657;45.940;12.840;2022-07-30T03:53:11;33.40;43.30
19050;DHT22;9657;45.940;12.840;2022-07-30T03:55:39;33.40;43.30
19050;DHT22;9657;45.940;12.840;2022-07-30T03:58:06;33.40;43.30
19050;DHT22;9657;45.940;12.840;2022-07-30T04:00:34;33.40;43.30
19050;DHT22;9657;45.940;12.840;2022-07-30T04:03:04;33.40;43.40
19050;DHT22;9657;45.940;12.840;2022-07-30T04:05:33;33.40;43.40
19050;DHT22;9657;45.940;12.840;2022-07-30T04:08:00;33.40;43.40
19050;DHT22;9657;45.940;12.840;2022-07-30T04:10:27;33.40;43.40
19050;DHT22;9657;45.940;12.840;2022-07-30T04:12:54;33.40;43.40
19050;DHT22;9657;45.940;12.840;2022-07-30T04:15:22;33.40;43.40
19050;DHT22;9657;45.940;12.840;2022-07-30T04:17:54;33.40;43.40
19050;DHT22;9657;45.940;12.840;2022-07-30T04:20:26;33.40;43.40
19050;DHT22;9657;45.940;12.840;2022-07-30T04:22:55;33.40;43.40
19050;DHT22;9657;45.940;12.840;2022-07-30T04:25:23;33.40;43.40
19050;DHT22;9657;45.940;12.840;2022-07-30T04:27:51;33.40;43.40
19050;DHT22;9657;45.940;12.840;2022-07-30T04:30:18;33.30;43.30
19050;DHT22;9657;45.940;12.840;2022-07-30T04:32:45;33.30;43.30
19050;DHT22;9657;45.940;12.840;2022-07-30T04:35:12;33.30;43.30
19050;DHT22;9657;45.940;12.840;2022-07-30T04:37:40;33.30;43.30
19050;DHT22;9657;45.940;12.840;2022-07-30T04:40:09;33.30;43.30
19050;DHT22;9657;45.940;12.840;2022-07-30T04:42:36;33.30;43.30
19050;DHT22;9657;45.940;12.840;2022-07-30T04:45:04;33.30;43.30
19050;DHT22;9657;45.940;12.840;2022-07-30T04:47:31;33.30;43.30
19050;DHT22;9657;45.940;12.840;2022-07-30T04:50:00;33.30;43.30
19050;DHT22;9657;45.940;12.840;2022-07-30T04:52:27;33.30;43.30
19050;DHT22;9657;45.940;12.840;2022-07-30T04:54:56;33.30;43.40
19050;DHT22;9657;45.940;12.840;2022-07-30T04:57:26;33.30;43.50
19050;DHT22;9657;45.940;12.840;2022-07-30T04:59:54;33.30;43.50
19050;DHT22;9657;45.940;12.840;2022-07-30T05:02:22;33.30;43.50
19050;DHT22;9657;45.940;12.840;2022-07-30T05:04:51;33.30;43.40
19050;DHT22;9657;45.940;12.840;2022-07-30T05:07:20;33.30;43.50
19050;DHT22;9657;45.940;12.840;2022-07-30T05:09:48;33.30;44.20
19050;DHT22;9657;45.940;12.840;2022-07-30T05:12:15;33.20;43.50
19050;DHT22;9657;45.940;12.840;2022-07-30T05:14:43;33.30;43.50
19050;DHT22;9657;45.940;12.840;2022-07-30T05:17:10;33.30;43.50
19050;DHT22;9657;45.940;12.840;2022-07-30T05:19:37;33.30;43.60
19050;DHT22;9657;45.940;12.840;2022-07-30T05:22:04;33.30;43.60
19050;DHT22;9657;45.940;12.840;2022-07-30T05:24:31;33.30;43.60
19050;DHT22;9657;45.940;12.840;2022-07-30T05:26:58;33.20;43.50
19050;DHT22;9657;45.940;12.840;2022-07-30T05:29:25;33.20;43.60
19050;DHT22;9657;45.940;12.840;2022-07-30T05:31:54;33.30;43.60
19050;DHT22;9657;45.940;12.840;2022-07-30T05:34:21;33.20;43.60
19050;DHT22;9657;45.940;12.840;2022-07-30T05:36:48;33.30;43.60
19050;DHT22;9657;45.940;12.840;2022-07-30T05:39:15;33.20;43.60
19050;DHT22;9657;45.940;12.840;2022-07-30T05:41:42;33.30;43.70
19050;DHT22;9657;45.940;12.840;2022-07-30T05:44:09;33.30;43.70
19050;DHT22;9657;45.940;12.840;2022-07-30T05:46:36;33.20;43.70
19050;DHT22;9657;45.940;12.840;2022-07-30T05:49:05;33.20;43.70
19050;DHT22;9657;45.940;12.840;2022-07-30T05:51:32;33.20;43.70
19050;DHT22;9657;45.940;12.840;2022-07-30T05:53:59;33.20;43.70
19050;DHT22;9657;45.940;12.840;2022-07-30T05:56:26;33.20;43.70
19050;DHT22;9657;45.940;12.840;2022-07-30T05:58:53;33.20;43.70
19050;DHT22;9657;45.940;12.840;2022-07-30T06:01:21;33.20;43.70
19050;DHT22;9657;45.940;12.840;2022-07-30T06:03:48;33.20;43.70
19050;DHT22;9657;45.940;12.840;2022-07-30T06:06:16;33.20;43.70
19050;DHT22;9657;45.940;12.840;2022-07-30T06:08:43;33.10;43.60
19050;DHT22;9657;45.940;12.840;2022-07-30T06:11:10;33.20;43.70
19050;DHT22;9657;45.940;12.840;2022-07-30T06:13:37;33.20;43.70
19050;DHT22;9657;45.940;12.840;2022-07-30T06:16:04;33.20;43.70
19050;DHT22;9657;45.940;12.840;2022-07-30T06:18:31;33.20;43.70
19050;DHT22;9657;45.940;12.840;2022-07-30T06:20:59;33.10;43.70
19050;DHT22;9657;45.940;12.840;2022-07-30T06:23:27;33.10;43.80
19050;DHT22;9657;45.940;12.840;2022-07-30T06:25:54;33.10;43.70
19050;DHT22;9657;45.940;12.840;2022-07-30T06:28:21;33.20;43.80
19050;DHT22;9657;45.940;12.840;2022-07-30T06:30:48;33.10;43.80
19050;DHT22;9657;45.940;12.840;2022-07-30T06:33:15;33.20;43.80
19050;DHT22;9657;45.940;12.840;2022-07-30T06:35:42;33.10;43.80
19050;DHT22;9657;45.940;12.840;2022-07-30T06:38:10;33.10;43.80
19050;DHT22;9657;45.940;12.840;2022-07-30T06:40:38;33.10;43.80
19050;DHT22;9657;45.940;12.840;2022-07-30T06:43:05;33.10;43.80
19050;DHT22;9657;45.940;12.840;2022-07-30T06:45:32;33.10;43.80
19050;DHT22;9657;45.940;12.840;2022-07-30T06:48:00;33.10;43.80
19050;DHT22;9657;45.940;12.840;2022-07-30T06:50:27;33.10;43.80
19050;DHT22;9657;45.940;12.840;2022-07-30T06:52:54;33.10;43.80
19050;DHT22;9657;45.940;12.840;2022-07-30T06:55:21;33.10;43.80
19050;DHT22;9657;45.940;12.840;2022-07-30T06:57:49;33.10;43.80
19050;DHT22;9657;45.940;12.840;2022-07-30T07:00:17;33.10;43.90
19050;DHT22;9657;45.940;12.840;2022-07-30T07:02:44;33.10;43.80
19050;DHT22;9657;45.940;12.840;2022-07-30T07:05:11;33.10;43.80
19050;DHT22;9657;45.940;12.840;2022-07-30T07:07:38;33.10;43.90
19050;DHT22;9657;45.940;12.840;2022-07-30T07:10:06;33.10;43.90
19050;DHT22;9657;45.940;12.840;2022-07-30T07:12:34;33.10;43.90
19050;DHT22;9657;45.940;12.840;2022-07-30T07:15:03;33.10;43.80
19050;DHT22;9657;45.940;12.840;2022-07-30T07:17:30;33.10;43.90
19050;DHT22;9657;45.940;12.840;2022-07-30T07:19:57;33.10;43.80
19050;DHT22;9657;45.940;12.840;2022-07-30T07:22:24;33.10;43.90
19050;DHT22;9657;45.940;12.840;2022-07-30T07:24:51;33.10;43.90
19050;DHT22;9657;45.940;12.840;2022-07-30T07:27:19;33.10;43.80
19050;DHT22;9657;45.940;12.840;2022-07-30T07:29:46;33.10;43.80
19050;DHT22;9657;45.940;12.840;2022-07-30T07:32:14;33.10;43.80
19050;DHT22;9657;45.940;12.840;2022-07-30T07:34:41;33.10;43.80
19050;DHT22;9657;45.940;12.840;2022-07-30T07:37:08;33.10;43.80
19050;DHT22;9657;45.940;12.840;2022-07-30T07:39:35;33.10;43.80
19050;DHT22;9657;45.940;12.840;2022-07-30T07:42:03;33.10;43.80
19050;DHT22;9657;45.940;12.840;2022-07-30T07:44:30;33.10;43.80
19050;DHT22;9657;45.940;12.840;2022-07-30T07:46:57;33.10;44.50
19050;DHT22;9657;45.940;12.840;2022-07-30T07:49:25;33.10;43.80
19050;DHT22;9657;45.940;12.840;2022-07-30T07:51:52;33.10;43.80
19050;DHT22;9657;45.940;12.840;2022-07-30T07:54:19;33.10;43.80
19050;DHT22;9657;45.940;12.840;2022-07-30T07:56:46;33.10;43.80
19050;DHT22;9657;45.940;12.840;2022-07-30T07:59:16;33.10;43.80
19050;DHT22;9657;45.940;12.840;2022-07-30T08:01:43;33.10;43.80
19050;DHT22;9657;45.940;12.840;2022-07-30T08:04:11;33.10;43.80
19050;DHT22;9657;45.940;12.840;2022-07-30T08:06:39;33.10;43.70
19050;DHT22;9657;45.940;12.840;2022-07-30T08:09:06;33.10;43.80
19050;DHT22;9657;45.940;12.840;2022-07-30T08:11:34;33.10;43.80
19050;DHT22;9657;45.940;12.840;2022-07-30T08:14:02;33.10;43.80
19050;DHT22;9657;45.940;12.840;2022-07-30T08:16:29;33.10;43.80
19050;DHT22;9657;45.940;12.840;2022-07-30T08:18:56;33.10;43.80
19050;DHT22;9657;45.940;12.840;2022-07-30T08:21:23;33.10;43.80
19050;DHT22;9657;45.940;12.840;2022-07-30T08:23:51;33.10;43.80
19050;DHT22;9657;45.940;12.840;2022-07-30T08:26:18;33.10;43.70
19050;DHT22;9657;45.940;12.840;2022-07-30T08:28:46;33.10;43.70
19050;DHT22;9657;45.940;12.840;2022-07-30T08:31:13;33.10;43.70
19050;DHT22;9657;45.940;12.840;2022-07-30T08:33:40;33.10;43.70
19050;DHT22;9657;45.940;12.840;2022-07-30T08:36:07;33.10;43.70
19050;DHT22;9657;45.940;12.840;2022-07-30T08:38:34;33.10;43.70
19050;DHT22;9657;45.940;12.840;2022-07-30T08:41:02;33.10;43.60
19050;DHT22;9657;45.940;12.840;2022-07-30T08:43:30;33.10;43.60
19050;DHT22;9657;45.940;12.840;2022-07-30T08:45:58;33.10;43.60
19050;DHT22;9657;45.940;12.840;2022-07-30T08:48:27;33.10;43.60
19050;DHT22;9657;45.940;12.840;2022-07-30T08:50:55;33.10;43.60
19050;DHT22;9657;45.940;12.840;2022-07-30T08:53:24;33.10;43.50
19050;DHT22;9657;45.940;12.840;2022-07-30T08:55:52;33.10;43.50
19050;DHT22;9657;45.940;12.840;2022-07-30T08:58:26;33.10;43.40
19050;DHT22;9657;45.940;12.840;2022-07-30T09:00:54;33.10;43.40
19050;DHT22;9657;45.940;12.840;2022-07-30T09:03:21;33.10;43.40
19050;DHT22;9657;45.940;12.840;2022-07-30T09:05:48;33.10;43.30
19050;DHT22;9657;45.940;12.840;2022-07-30T09:08:15;33.10;43.30
19050;DHT22;9657;45.940;12.840;2022-07-30T09:10:43;33.10;43.30
19050;DHT22;9657;45.940;12.840;2022-07-30T09:13:28;33.10;43.20
19050;DHT22;9657;45.940;12.840;2022-07-30T09:15:56;33.10;43.20
19050;DHT22;9657;45.940;12.840;2022-07-30T09:18:31;33.10;43.20
19050;DHT22;9657;45.940;12.840;2022-07-30T09:20:59;33.10;43.20
19050;DHT22;9657;45.940;12.840;2022-07-30T09:23:26;33.20;43.30
19050;DHT22;9657;45.940;12.840;2022-07-30T09:25:53;33.20;43.20
19050;DHT22;9657;45.940;12.840;2022-07-30T09:28:29;33.20;43.20
19050;DHT22;9657;45.940;12.840;2022-07-30T09:30:56;33.20;43.10
19050;DHT22;9657;45.940;12.840;2022-07-30T09:33:32;33.20;43.10
19050;DHT22;9657;45.940;12.840;2022-07-30T09:35:59;33.20;43.10
19050;DHT22;9657;45.940;12.840;2022-07-30T09:38:27;33.20;43.00
19050;DHT22;9657;45.940;12.840;2022-07-30T09:40:55;33.20;43.00
19050;DHT22;9657;45.940;12.840;2022-07-30T09:43:23;33.30;42.90
19050;DHT22;9657;45.940;12.840;2022-07-30T09:45:53;33.30;42.90
19050;DHT22;9657;45.940;12.840;2022-07-30T09:48:23;33.30;42.90
19050;DHT22;9657;45.940;12.840;2022-07-30T09:50:52;33.30;42.80
19050;DHT22;9657;45.940;12.840;2022-07-30T09:53:21;33.30;42.70
19050;DHT22;9657;45.940;12.840;2022-07-30T09:55:48;33.30;42.80
19050;DHT22;9657;45.940;12.840;2022-07-30T09:58:15;33.30;42.70
19050;DHT22;9657;45.940;12.840;2022-07-30T10:00:43;33.30;42.70
19050;DHT22;9657;45.940;12.840;2022-07-30T10:03:16;33.40;42.80
19050;DHT22;9657;45.940;12.840;2022-07-30T10:05:51;33.40;42.80
19050;DHT22;9657;45.940;12.840;2022-07-30T10:08:19;33.40;42.80
19050;DHT22;9657;45.940;12.840;2022-07-30T10:10:46;33.40;42.80
19050;DHT22;9657;45.940;12.840;2022-07-30T10:13:15;33.40;42.80
19050;DHT22;9657;45.940;12.840;2022-07-30T10:15:45;33.40;42.80
19050;DHT22;9657;45.940;12.840;2022-07-30T10:18:12;33.40;43.40
19050;DHT22;9657;45.940;12.840;2022-07-30T10:20:42;33.40;42.70
19050;DHT22;9657;45.940;12.840;2022-07-30T10:23:09;33.40;42.70
19050;DHT22;9657;45.940;12.840;2022-07-30T10:25:37;33.40;42.70
19050;DHT22;9657;45.940;12.840;2022-07-30T10:28:04;33.40;42.70
19050;DHT22;9657;45.940;12.840;2022-07-30T10:30:32;33.40;42.60
19050;DHT22;9657;45.940;12.840;2022-07-30T10:33:00;33.40;42.60
19050;DHT22;9657;45.940;12.840;2022-07-30T10:35:27;33.40;42.60
19050;DHT22;9657;45.940;12.840;2022-07-30T10:37:56;33.40;42.60
19050;DHT22;9657;45.940;12.840;2022-07-30T10:40:28;33.40;42.60
19050;DHT22;9657;45.940;12.840;2022-07-30T10:43:22;33.40;42.60
19050;DHT22;9657;45.940;12.840;2022-07-30T10:45:58;33.40;42.60
19050;DHT22;9657;45.940;12.840;2022-07-30T10:48:31;33.40;42.60
19050;DHT22;9657;45.940;12.840;2022-07-30T10:50:59;33.40;42.50
19050;DHT22;9657;45.940;12.840;2022-07-30T10:53:35;33.40;42.50
19050;DHT22;9657;45.940;12.840;2022-07-30T10:56:11;33.40;42.50
19050;DHT22;9657;45.940;12.840;2022-07-30T10:58:59;33.40;42.50
19050;DHT22;9657;45.940;12.840;2022-07-30T11:04:28;33.40;42.40
19050;DHT22;9657;45.940;12.840;2022-07-30T11:07:25;33.50;42.60
19050;DHT22;9657;45.940;12.840;2022-07-30T11:09:58;33.50;42.50
19050;DHT22;9657;45.940;12.840;2022-07-30T11:12:51;33.50;42.50
19050;DHT22;9657;45.940;12.840;2022-07-30T11:15:19;33.50;42.50
19050;DHT22;9657;45.940;12.840;2022-07-30T11:18:04;33.50;42.50
19050;DHT22;9657;45.940;12.840;2022-07-30T11:20:32;33.50;42.50
19050;DHT22;9657;45.940;12.840;2022-07-30T11:23:11;33.50;42.50
19050;DHT22;9657;45.940;12.840;2022-07-30T11:25:47;33.50;42.50
19050;DHT22;9657;45.940;12.840;2022-07-30T11:28:37;33.50;42.50
19050;DHT22;9657;45.940;12.840;2022-07-30T11:31:32;33.50;42.50
19050;DHT22;9657;45.940;12.840;2022-07-30T11:34:26;33.50;42.40
19050;DHT22;9657;45.940;12.840;2022-07-30T11:37:18;33.50;42.40
19050;DHT22;9657;45.940;12.840;2022-07-30T11:40:06;33.50;42.40
19050;DHT22;9657;45.940;12.840;2022-07-30T11:42:37;33.50;42.40
19050;DHT22;9657;45.940;12.840;2022-07-30T11:45:21;33.50;42.40
19050;DHT22;9657;45.940;12.840;2022-07-30T11:47:52;33.50;42.40
19050;DHT22;9657;45.940;12.840;2022-07-30T11:50:23;33.50;42.40
19050;DHT22;9657;45.940;12.840;2022-07-30T11:52:50;33.50;42.40
19050;DHT22;9657;45.940;12.840;2022-07-30T11:55:22;33.50;42.30
19050;DHT22;9657;45.940;12.840;2022-07-30T11:57:51;33.50;42.30
19050;DHT22;9657;45.940;12.840;2022-07-30T12:00:19;33.50;42.30
19050;DHT22;9657;45.940;12.840;2022-07-30T12:02:46;33.50;42.30
19050;DHT22;9657;45.940;12.840;2022-07-30T12:05:15;33.50;42.30
19050;DHT22;9657;45.940;12.840;2022-07-30T12:07:42;33.50;42.30
19050;DHT22;9657;45.940;12.840;2022-07-30T12:10:14;33.50;42.30
19050;DHT22;9657;45.940;12.840;2022-07-30T12:12:41;33.50;42.20
19050;DHT22;9657;45.940;12.840;2022-07-30T12:15:10;33.60;42.30
19050;DHT22;9657;45.940;12.840;2022-07-30T12:17:53;33.60;42.30
19050;DHT22;9657;45.940;12.840;2022-07-30T12:20:20;33.60;42.30
19050;DHT22;9657;45.940;12.840;2022-07-30T12:22:47;33.60;42.30
19050;DHT22;9657;45.940;12.840;2022-07-30T12:25:15;33.60;42.20
19050;DHT22;9657;45.940;12.840;2022-07-30T12:27:45;33.60;42.20
19050;DHT22;9657;45.940;12.840;2022-07-30T12:30:15;33.60;42.30
19050;DHT22;9657;45.940;12.840;2022-07-30T12:32:42;33.60;42.20
19050;DHT22;9657;45.940;12.840;2022-07-30T12:35:10;33.60;42.20
19050;DHT22;9657;45.940;12.840;2022-07-30T12:37:38;33.60;42.20
19050;DHT22;9657;45.940;12.840;2022-07-30T12:40:10;33.60;42.20
19050;DHT22;9657;45.940;12.840;2022-07-30T12:42:48;33.60;42.20
19050;DHT22;9657;45.940;12.840;2022-07-30T12:45:28;33.50;42.10
19050;DHT22;9657;45.940;12.840;2022-07-30T12:47:56;33.60;42.10
19050;DHT22;9657;45.940;12.840;2022-07-30T12:50:23;33.60;42.10
19050;DHT22;9657;45.940;12.840;2022-07-30T12:52:52;33.60;42.00
19050;DHT22;9657;45.940;12.840;2022-07-30T12:55:28;33.60;41.90
19050;DHT22;9657;45.940;12.840;2022-07-30T12:57:58;33.60;41.70
19050;DHT22;9657;45.940;12.840;2022-07-30T13:00:29;33.60;41.60
19050;DHT22;9657;45.940;12.840;2022-07-30T13:02:58;33.60;41.30
19050;DHT22;9657;45.940;12.840;2022-07-30T13:05:44;33.60;41.10
19050;DHT22;9657;45.940;12.840;2022-07-30T13:08:11;33.60;40.90
19050;DHT22;9657;45.940;12.840;2022-07-30T13:10:51;33.60;40.80
19050;DHT22;9657;45.940;12.840;2022-07-30T13:13:19;33.60;40.80
19050;DHT22;9657;45.940;12.840;2022-07-30T13:15:56;33.60;40.70
19050;DHT22;9657;45.940;12.840;2022-07-30T13:18:24;33.60;40.70
19050;DHT22;9657;45.940;12.840;2022-07-30T13:20:51;33.60;40.70
19050;DHT22;9657;45.940;12.840;2022-07-30T13:23:18;33.60;40.70
19050;DHT22;9657;45.940;12.840;2022-07-30T13:25:45;33.60;40.60
19050;DHT22;9657;45.940;12.840;2022-07-30T13:28:12;33.60;40.70
19050;DHT22;9657;45.940;12.840;2022-07-30T13:30:39;33.60;40.70
19050;DHT22;9657;45.940;12.840;2022-07-30T13:33:08;33.60;40.70
19050;DHT22;9657;45.940;12.840;2022-07-30T13:35:35;33.60;40.80
19050;DHT22;9657;45.940;12.840;2022-07-30T13:38:02;33.60;40.90
19050;DHT22;9657;45.940;12.840;2022-07-30T13:40:31;33.60;40.80
19050;DHT22;9657;45.940;12.840;2022-07-30T13:42:58;33.60;40.90
19050;DHT22;9657;45.940;12.840;2022-07-30T13:45:25;33.60;40.90
19050;DHT22;9657;45.940;12.840;2022-07-30T13:47:52;33.60;40.90
19050;DHT22;9657;45.940;12.840;2022-07-30T13:50:21;33.60;40.90
19050;DHT22;9657;45.940;12.840;2022-07-30T13:52:48;33.60;40.80
19050;DHT22;9657;45.940;12.840;2022-07-30T13:55:15;33.60;40.90
19050;DHT22;9657;45.940;12.840;2022-07-30T13:57:42;33.60;40.90
19050;DHT22;9657;45.940;12.840;2022-07-30T14:00:10;33.60;40.90
19050;DHT22;9657;45.940;12.840;2022-07-30T14:02:38;33.60;40.90
19050;DHT22;9657;45.940;12.840;2022-07-30T14:05:06;33.60;40.90
19050;DHT22;9657;45.940;12.840;2022-07-30T14:07:35;33.60;40.90
19050;DHT22;9657;45.940;12.840;2022-07-30T14:10:03;33.60;40.90
19050;DHT22;9657;45.940;12.840;2022-07-30T14:12:31;33.60;40.90
19050;DHT22;9657;45.940;12.840;2022-07-30T14:14:59;33.60;41.00
19050;DHT22;9657;45.940;12.840;2022-07-30T14:17:26;33.60;40.90
19050;DHT22;9657;45.940;12.840;2022-07-30T14:19:53;33.60;40.90
19050;DHT22;9657;45.940;12.840;2022-07-30T14:22:21;33.60;40.90
19050;DHT22;9657;45.940;12.840;2022-07-30T14:24:49;33.60;40.90
19050;DHT22;9657;45.940;12.840;2022-07-30T14:27:16;33.60;40.90
19050;DHT22;9657;45.940;12.840;2022-07-30T14:29:45;33.60;40.90
19050;DHT22;9657;45.940;12.840;2022-07-30T14:32:12;33.60;40.90
19050;DHT22;9657;45.940;12.840;2022-07-30T14:34:39;33.60;40.80
19050;DHT22;9657;45.940;12.840;2022-07-30T14:37:06;33.60;40.90
19050;DHT22;9657;45.940;12.840;2022-07-30T14:39:33;33.60;40.90
19050;DHT22;9657;45.940;12.840;2022-07-30T14:42:02;33.60;40.90
19050;DHT22;9657;45.940;12.840;2022-07-30T14:44:30;33.60;40.90
19050;DHT22;9657;45.940;12.840;2022-07-30T14:46:57;33.60;40.90
19050;DHT22;9657;45.940;12.840;2022-07-30T14:49:25;33.60;41.00
19050;DHT22;9657;45.940;12.840;2022-07-30T14:51:52;33.60;41.00
19050;DHT22;9657;45.940;12.840;2022-07-30T14:54:19;33.60;41.10
19050;DHT22;9657;45.940;12.840;2022-07-30T14:56:47;33.60;41.10
19050;DHT22;9657;45.940;12.840;2022-07-30T14:59:15;33.60;41.10
19050;DHT22;9657;45.940;12.840;2022-07-30T15:01:42;33.60;41.10
19050;DHT22;9657;45.940;12.840;2022-07-30T15:04:09;33.50;41.10
19050;DHT22;9657;45.940;12.840;2022-07-30T15:06:37;33.60;41.20
19050;DHT22;9657;45.940;12.840;2022-07-30T15:09:05;33.60;41.20
19050;DHT22;9657;45.940;12.840;2022-07-30T15:11:33;33.60;41.30
19050;DHT22;9657;45.940;12.840;2022-07-30T15:14:00;33.60;41.30
19050;DHT22;9657;45.940;12.840;2022-07-30T15:16:28;33.60;41.30
19050;DHT22;9657;45.940;12.840;2022-07-30T15:18:55;33.60;41.40
19050;DHT22;9657;45.940;12.840;2022-07-30T15:21:22;33.50;41.40
19050;DHT22;9657;45.940;12.840;2022-07-30T15:23:49;33.50;41.50
19050;DHT22;9657;45.940;12.840;2022-07-30T15:26:17;33.60;41.70
19050;DHT22;9657;45.940;12.840;2022-07-30T15:28:44;33.50;41.60
19050;DHT22;9657;45.940;12.840;2022-07-30T15:31:11;33.50;41.60
19050;DHT22;9657;45.940;12.840;2022-07-30T15:33:39;33.50;41.50
19050;DHT22;9657;45.940;12.840;2022-07-30T15:36:08;33.50;41.60
19050;DHT22;9657;45.940;12.840;2022-07-30T15:38:36;33.50;41.50
19050;DHT22;9657;45.940;12.840;2022-07-30T15:41:03;33.50;42.20
19050;DHT22;9657;45.940;12.840;2022-07-30T15:43:30;33.50;41.40
19050;DHT22;9657;45.940;12.840;2022-07-30T15:45:57;33.50;41.30
19050;DHT22;9657;45.940;12.840;2022-07-30T15:48:24;33.50;41.20